Time;durP1;ratioP1;P1;durP2;ratioP2;P2;SDS_P1;SDS_P2;PMS_P1;PMS_P2;Temp;Humidity;BMP_temperature;BMP_pressure;BME280_temperature;BME280_humidity;BME280_pressure;Samples;Min_cycle;Max_cycle;Signal;HPM_P1;HPM_P2
2020/12/26 00:00:56;;;;;;;14.25;6.35;;;;;;;;;;8162559;28;20465;-74
2020/12/26 00:04:59;;;;;;;16.08;6.50;;;;;;;;;;8158755;28;20062;-72
2020/12/26 00:09:09;;;;;;;21.42;6.85;;;;;;;;;;8160452;28;20385;-73
2020/12/26 00:13:13;;;;;;;13.75;6.32;;;;;;;;;;8159814;28;20409;-73
2020/12/26 00:17:16;;;;;;;19.83;7.80;;;;;;;;;;8157544;28;20466;-73
2020/12/26 00:21:19;;;;;;;16.15;6.53;;;;;;;;;;8160737;28;20408;-73
2020/12/26 00:25:22;;;;;;;17.98;6.72;;;;;;;;;;8156178;28;20404;-72
2020/12/26 00:29:26;;;;;;;20.20;7.70;;;;;;;;;;8158136;28;20668;-73
2020/12/26 00:33:31;;;;;;;16.33;6.47;;;;;;;;;;8160143;28;20501;-73
2020/12/26 00:37:34;;;;;;;18.35;6.43;;;;;;;;;;8161514;28;20458;-73
2020/12/26 00:41:37;;;;;;;13.80;6.07;;;;;;;;;;8160204;28;20042;-74
2020/12/26 00:45:40;;;;;;;11.15;5.85;;;;;;;;;;8158547;28;20097;-72
2020/12/26 00:49:46;;;;;;;10.38;4.60;;;;;;;;;;8160883;28;20058;-73
2020/12/26 00:53:49;;;;;;;13.02;5.40;;;;;;;;;;8164332;28;20365;-73
2020/12/26 00:57:52;;;;;;;9.32;5.13;;;;;;;;;;8207432;28;20476;-72
2020/12/26 01:01:56;;;;;;;10.52;4.60;;;;;;;;;;8206082;28;20365;-73
2020/12/26 01:06:16;;;;;;;12.13;5.60;;;;;;;;;;8189544;28;20491;-72
2020/12/26 01:10:19;;;;;;;9.27;4.47;;;;;;;;;;8188082;28;20473;-72
2020/12/26 01:14:22;;;;;;;7.80;3.72;;;;;;;;;;8192501;28;20064;-72
2020/12/26 01:18:28;;;;;;;14.57;5.22;;;;;;;;;;8190441;28;20491;-73
2020/12/26 01:22:34;;;;;;;7.13;4.18;;;;;;;;;;8192444;28;20524;-72
2020/12/26 01:26:37;;;;;;;11.88;4.75;;;;;;;;;;8189502;28;20366;-72
2020/12/26 01:30:41;;;;;;;16.33;5.82;;;;;;;;;;8192012;28;20477;-72
2020/12/26 01:34:44;;;;;;;14.80;5.13;;;;;;;;;;8190095;28;20068;-72
2020/12/26 01:38:48;;;;;;;9.00;4.63;;;;;;;;;;8206134;28;20469;-72
2020/12/26 01:42:51;;;;;;;9.88;4.93;;;;;;;;;;8193530;28;20072;-72
2020/12/26 01:46:54;;;;;;;14.20;5.60;;;;;;;;;;8193602;28;20046;-72
2020/12/26 01:50:59;;;;;;;16.48;5.10;;;;;;;;;;8176325;28;20068;-73
2020/12/26 01:55:03;;;;;;;21.05;6.20;;;;;;;;;;8175653;28;20460;-72
2020/12/26 01:59:06;;;;;;;17.92;5.40;;;;;;;;;;8193842;28;20499;-72
2020/12/26 02:03:10;;;;;;;20.48;5.10;;;;;;;;;;8172760;28;20362;-72
2020/12/26 02:07:13;;;;;;;15.88;5.55;;;;;;;;;;8172895;28;20461;-72
2020/12/26 02:11:16;;;;;;;24.75;8.52;;;;;;;;;;8172630;28;20113;-72
2020/12/26 02:15:19;;;;;;;23.42;6.95;;;;;;;;;;8173451;28;20482;-73
2020/12/26 02:19:25;;;;;;;30.48;8.43;;;;;;;;;;8188955;28;20456;-73
2020/12/26 02:23:28;;;;;;;23.27;6.60;;;;;;;;;;8188810;28;20381;-73
2020/12/26 02:27:32;;;;;;;20.75;6.00;;;;;;;;;;8172397;28;20076;-72
2020/12/26 02:31:36;;;;;;;14.25;4.63;;;;;;;;;;8188728;28;20377;-73
2020/12/26 02:35:39;;;;;;;13.52;4.47;;;;;;;;;;8191732;28;20054;-72
2020/12/26 02:39:42;;;;;;;20.90;5.95;;;;;;;;;;8192613;28;20509;-73
2020/12/26 02:43:45;;;;;;;11.77;4.53;;;;;;;;;;8192609;28;20469;-72
2020/12/26 02:47:49;;;;;;;12.55;4.80;;;;;;;;;;8190828;28;20507;-72
2020/12/26 02:51:52;;;;;;;10.27;3.85;;;;;;;;;;8191938;28;20358;-72
2020/12/26 02:55:55;;;;;;;7.18;3.60;;;;;;;;;;8190989;28;20416;-73
2020/12/26 02:59:58;;;;;;;6.57;3.63;;;;;;;;;;8192075;28;20465;-72
2020/12/26 03:04:01;;;;;;;9.63;5.35;;;;;;;;;;8191425;28;20503;-72
2020/12/26 03:08:04;;;;;;;8.73;4.53;;;;;;;;;;8174039;28;20385;-72
2020/12/26 03:12:08;;;;;;;10.13;5.20;;;;;;;;;;8190156;28;20484;-72
2020/12/26 03:16:11;;;;;;;10.57;4.60;;;;;;;;;;8190827;28;20465;-72
2020/12/26 03:20:14;;;;;;;8.57;4.03;;;;;;;;;;8190565;28;20365;-72
2020/12/26 03:24:17;;;;;;;11.20;4.32;;;;;;;;;;8190440;28;20384;-72
2020/12/26 03:28:20;;;;;;;12.80;5.28;;;;;;;;;;8191750;28;20372;-72
2020/12/26 03:32:23;;;;;;;9.15;4.78;;;;;;;;;;8190057;28;20473;-72
2020/12/26 03:36:26;;;;;;;9.52;4.50;;;;;;;;;;8189603;28;20384;-72
2020/12/26 03:40:29;;;;;;;8.15;4.43;;;;;;;;;;8190992;28;20372;-72
2020/12/26 03:44:33;;;;;;;11.70;5.40;;;;;;;;;;8191583;28;20388;-72
2020/12/26 03:48:36;;;;;;;9.90;5.07;;;;;;;;;;8189510;28;20506;-72
2020/12/26 03:52:39;;;;;;;13.73;4.35;;;;;;;;;;8191084;28;20384;-72
2020/12/26 03:56:44;;;;;;;7.72;4.60;;;;;;;;;;8189974;28;20354;-72
2020/12/26 04:00:47;;;;;;;11.48;5.10;;;;;;;;;;8189911;28;20468;-72
2020/12/26 04:04:50;;;;;;;8.60;4.38;;;;;;;;;;8191028;28;20373;-72
2020/12/26 04:08:53;;;;;;;9.40;4.07;;;;;;;;;;8190478;28;20392;-72
2020/12/26 04:12:56;;;;;;;4.60;3.03;;;;;;;;;;8191111;28;20368;-72
2020/12/26 04:16:59;;;;;;;8.30;3.33;;;;;;;;;;8194254;28;20472;-72
2020/12/26 04:21:02;;;;;;;7.93;4.03;;;;;;;;;;8195012;28;20077;-72
2020/12/26 04:25:05;;;;;;;8.52;4.45;;;;;;;;;;8194762;28;20496;-72
2020/12/26 04:29:10;;;;;;;8.23;4.30;;;;;;;;;;8194166;28;20488;-72
2020/12/26 04:33:13;;;;;;;7.35;3.90;;;;;;;;;;8194413;28;20464;-72
2020/12/26 04:37:16;;;;;;;6.82;3.67;;;;;;;;;;8195763;28;20362;-72
2020/12/26 04:41:20;;;;;;;7.00;3.90;;;;;;;;;;8194438;28;20485;-72
2020/12/26 04:45:23;;;;;;;6.68;3.83;;;;;;;;;;8195945;28;20518;-73
2020/12/26 04:49:30;;;;;;;7.70;4.57;;;;;;;;;;8195376;28;20503;-72
2020/12/26 04:53:53;;;;;;;8.32;3.70;;;;;;;;;;8194261;28;20488;-72
2020/12/26 04:58:09;;;;;;;5.75;3.53;;;;;;;;;;8178317;28;20400;-72
2020/12/26 05:02:15;;;;;;;7.50;3.90;;;;;;;;;;8193431;28;20480;-72
2020/12/26 05:06:20;;;;;;;13.43;6.57;;;;;;;;;;8178162;28;20372;-72
2020/12/26 05:10:22;;;;;;;11.98;6.25;;;;;;;;;;8177138;28;20485;-72
2020/12/26 05:14:31;;;;;;;6.97;3.92;;;;;;;;;;8193373;28;20042;-72
2020/12/26 05:18:38;;;;;;;11.52;5.18;;;;;;;;;;8194971;28;20060;-72
2020/12/26 05:22:41;;;;;;;7.80;4.22;;;;;;;;;;8193050;28;20488;-72
2020/12/26 05:26:50;;;;;;;9.40;5.15;;;;;;;;;;8195273;28;20469;-72
2020/12/26 05:30:53;;;;;;;6.73;3.33;;;;;;;;;;8177677;28;20380;-72
2020/12/26 05:35:08;;;;;;;7.60;3.33;;;;;;;;;;8192509;28;20793;-72
2020/12/26 05:39:12;;;;;;;11.43;4.00;;;;;;;;;;8194024;28;20377;-72
2020/12/26 05:43:21;;;;;;;6.05;3.00;;;;;;;;;;8192735;28;20377;-73
2020/12/26 05:47:26;;;;;;;12.80;5.63;;;;;;;;;;8192768;28;20050;-72
2020/12/26 05:51:33;;;;;;;13.05;5.38;;;;;;;;;;8176607;28;20050;-72
2020/12/26 05:55:41;;;;;;;20.30;7.75;;;;;;;;;;8192660;28;20460;-72
2020/12/26 05:59:55;;;;;;;18.73;7.75;;;;;;;;;;8192085;28;20498;-72
2020/12/26 06:04:08;;;;;;;13.93;6.93;;;;;;;;;;8193789;28;20069;-72
2020/12/26 06:08:12;;;;;;;6.57;3.58;;;;;;;;;;8191329;28;20404;-72
2020/12/26 06:12:17;;;;;;;9.55;3.35;;;;;;;;;;8192322;28;20491;-72
2020/12/26 06:16:25;;;;;;;6.85;3.20;;;;;;;;;;8193072;28;20042;-72
2020/12/26 06:20:28;;;;;;;6.35;3.13;;;;;;;;;;8191669;28;20480;-72
2020/12/26 06:24:44;;;;;;;5.75;2.92;;;;;;;;;;8177630;28;20473;-72
2020/12/26 06:28:48;;;;;;;6.75;3.50;;;;;;;;;;8192325;28;20076;-72
2020/12/26 06:32:52;;;;;;;6.15;3.78;;;;;;;;;;8175368;28;20376;-72
2020/12/26 06:36:56;;;;;;;5.18;2.67;;;;;;;;;;8117630;28;20050;-72
2020/12/26 06:41:18;;;;;;;10.25;3.85;;;;;;;;;;8189179;28;20381;-74
2020/12/26 06:45:37;;;;;;;8.35;3.67;;;;;;;;;;8177143;28;20456;-72
2020/12/26 06:49:40;;;;;;;6.80;3.00;;;;;;;;;;8189890;28;20499;-72
2020/12/26 06:53:43;;;;;;;14.88;7.07;;;;;;;;;;8179713;28;20358;-73
2020/12/26 06:57:46;;;;;;;18.40;8.23;;;;;;;;;;8159667;28;20382;-72
2020/12/26 07:01:49;;;;;;;12.43;5.50;;;;;;;;;;8157057;28;20506;-72
2020/12/26 07:05:54;;;;;;;9.98;4.50;;;;;;;;;;8157503;28;20418;-72
2020/12/26 07:09:57;;;;;;;8.43;4.13;;;;;;;;;;8138404;28;20478;-72
2020/12/26 07:14:00;;;;;;;8.15;3.35;;;;;;;;;;8154935;28;20412;-73
2020/12/26 07:18:23;;;;;;;6.25;3.55;;;;;;;;;;8156213;28;20480;-72
2020/12/26 07:22:31;;;;;;;8.50;3.88;;;;;;;;;;8156467;28;20378;-73
2020/12/26 07:26:38;;;;;;;6.45;3.83;;;;;;;;;;8135779;28;20822;-72
2020/12/26 07:30:41;;;;;;;16.08;6.03;;;;;;;;;;8151250;28;20480;-72
2020/12/26 07:34:44;;;;;;;13.23;7.38;;;;;;;;;;8152661;28;20429;-73
2020/12/26 07:39:03;;;;;;;11.80;5.20;;;;;;;;;;8147296;28;20408;-73
2020/12/26 07:43:16;;;;;;;21.17;10.10;;;;;;;;;;8151509;28;20380;-73
2020/12/26 07:47:20;;;;;;;16.13;6.80;;;;;;;;;;8156181;28;20042;-72
2020/12/26 07:51:23;;;;;;;16.05;7.97;;;;;;;;;;8168726;28;20371;-72
2020/12/26 07:55:43;;;;;;;10.27;5.45;;;;;;;;;;8163897;28;20495;-73
2020/12/26 07:59:46;;;;;;;15.07;7.07;;;;;;;;;;8161643;28;20065;-72
2020/12/26 08:04:00;;;;;;;29.35;15.32;;;;;;;;;;8119481;28;20480;-72
2020/12/26 08:08:19;;;;;;;23.73;11.30;;;;;;;;;;8133714;28;20466;-72
2020/12/26 08:12:22;;;;;;;17.30;8.65;;;;;;;;;;8152946;28;20497;-72
2020/12/26 08:16:25;;;;;;;38.67;17.00;;;;;;;;;;8196534;28;20464;-72
2020/12/26 08:20:31;;;;;;;20.58;10.23;;;;;;;;;;8174390;28;20469;-72
2020/12/26 08:24:34;;;;;;;20.48;10.75;;;;;;;;;;8165539;28;20465;-72
2020/12/26 08:28:39;;;;;;;17.38;9.90;;;;;;;;;;8143234;28;20421;-72
2020/12/26 08:33:11;;;;;;;11.38;6.43;;;;;;;;;;8187174;28;20499;-73
2020/12/26 08:37:27;;;;;;;15.48;6.47;;;;;;;;;;8176982;28;20054;-72
2020/12/26 08:41:39;;;;;;;16.17;8.00;;;;;;;;;;8183720;28;20369;-74
2020/12/26 08:45:42;;;;;;;13.57;6.93;;;;;;;;;;8160660;28;20477;-72
2020/12/26 08:49:45;;;;;;;16.38;6.68;;;;;;;;;;8175071;28;20475;-72
2020/12/26 08:53:51;;;;;;;11.43;5.63;;;;;;;;;;8160449;28;20080;-72
2020/12/26 08:58:00;;;;;;;12.63;6.45;;;;;;;;;;8159506;28;20492;-72
2020/12/26 09:02:04;;;;;;;10.50;4.88;;;;;;;;;;8158927;28;20470;-73
2020/12/26 09:06:07;;;;;;;13.30;5.68;;;;;;;;;;8159874;28;20409;-73
2020/12/26 09:10:12;;;;;;;28.67;9.93;;;;;;;;;;8161288;28;20101;-73
2020/12/26 09:14:22;;;;;;;21.27;8.98;;;;;;;;;;8161880;28;20504;-73
2020/12/26 09:18:27;;;;;;;62.60;40.45;;;;;;;;;;8177662;28;20054;-73
2020/12/26 09:22:30;;;;;;;154.80;111.50;;;;;;;;;;8171036;28;20365;-72
2020/12/26 09:26:43;;;;;;;35.38;21.42;;;;;;;;;;8159230;28;20473;-72
2020/12/26 09:30:49;;;;;;;27.65;18.90;;;;;;;;;;8162002;28;20481;-73
2020/12/26 09:34:52;;;;;;;30.40;21.65;;;;;;;;;;8183560;28;20068;-73
2020/12/26 09:38:55;;;;;;;22.55;14.27;;;;;;;;;;8188728;28;20481;-72
2020/12/26 09:42:59;;;;;;;22.15;12.70;;;;;;;;;;8191645;28;20053;-73
2020/12/26 09:47:04;;;;;;;18.00;8.77;;;;;;;;;;8172377;28;20054;-73
2020/12/26 09:51:21;;;;;;;25.52;14.07;;;;;;;;;;8156807;28;20652;-73
2020/12/26 09:55:25;;;;;;;28.40;12.90;;;;;;;;;;8158633;28;20457;-72
2020/12/26 09:59:29;;;;;;;19.17;10.02;;;;;;;;;;8157952;28;20050;-73
2020/12/26 10:03:33;;;;;;;37.55;18.98;;;;;;;;;;8143396;28;20104;-73
2020/12/26 10:07:35;;;;;;;126.05;70.97;;;;;;;;;;8140552;28;20054;-73
2020/12/26 10:11:38;;;;;;;41.80;23.40;;;;;;;;;;8154989;28;20465;-73
2020/12/26 10:15:42;;;;;;;72.97;52.08;;;;;;;;;;8131849;28;20097;-73
2020/12/26 10:19:45;;;;;;;17.15;9.05;;;;;;;;;;8153046;28;20511;-72
2020/12/26 10:23:48;;;;;;;38.80;21.23;;;;;;;;;;8158058;28;20470;-73
2020/12/26 10:27:53;;;;;;;27.65;15.05;;;;;;;;;;8138204;28;20413;-73
2020/12/26 10:31:56;;;;;;;26.02;15.70;;;;;;;;;;8156521;28;20470;-72
2020/12/26 10:36:01;;;;;;;18.83;9.77;;;;;;;;;;8157227;28;20366;-73
2020/12/26 10:40:06;;;;;;;22.13;9.75;;;;;;;;;;8157028;28;20413;-73
2020/12/26 10:44:10;;;;;;;22.38;8.77;;;;;;;;;;8152082;28;20465;-72
2020/12/26 10:48:18;;;;;;;15.23;6.68;;;;;;;;;;8158468;28;20058;-71
2020/12/26 10:52:25;;;;;;;27.80;11.77;;;;;;;;;;8156695;28;20361;-71
2020/12/26 10:56:30;;;;;;;124.90;40.42;;;;;;;;;;8170554;28;20359;-73
2020/12/26 11:00:33;;;;;;;47.08;16.40;;;;;;;;;;8147894;28;20466;-73
2020/12/26 11:04:36;;;;;;;400.98;147.05;;;;;;;;;;8181005;28;20388;-73
2020/12/26 11:08:41;;;;;;;113.18;45.00;;;;;;;;;;8165563;28;20392;-73
2020/12/26 11:12:44;;;;;;;24.73;11.32;;;;;;;;;;8186530;28;20045;-73
2020/12/26 11:16:52;;;;;;;66.63;28.35;;;;;;;;;;8186886;28;20447;-73
2020/12/26 11:20:55;;;;;;;27.48;10.27;;;;;;;;;;8189701;28;20472;-73
2020/12/26 11:24:59;;;;;;;26.55;12.95;;;;;;;;;;8193260;28;20503;-73
2020/12/26 11:29:04;;;;;;;28.90;15.25;;;;;;;;;;8186557;28;20050;-73
2020/12/26 11:33:07;;;;;;;16.73;8.90;;;;;;;;;;8165176;28;20484;-73
2020/12/26 11:37:11;;;;;;;31.92;18.92;;;;;;;;;;8165600;28;20361;-72
2020/12/26 11:41:17;;;;;;;14.55;5.75;;;;;;;;;;8179635;28;20042;-73
2020/12/26 11:45:19;;;;;;;9.98;5.28;;;;;;;;;;8189113;28;20389;-72
2020/12/26 11:49:23;;;;;;;18.80;6.47;;;;;;;;;;8175141;28;20354;-72
2020/12/26 11:53:27;;;;;;;16.40;7.28;;;;;;;;;;8195028;28;20046;-73
2020/12/26 11:57:31;;;;;;;9.82;4.60;;;;;;;;;;8181516;28;20452;-72
2020/12/26 12:01:34;;;;;;;13.18;5.72;;;;;;;;;;8179116;28;20494;-72
2020/12/26 12:05:37;;;;;;;21.13;7.03;;;;;;;;;;8182391;28;20416;-73
2020/12/26 12:09:40;;;;;;;13.95;5.07;;;;;;;;;;8158476;28;20409;-73
2020/12/26 12:13:43;;;;;;;17.38;6.22;;;;;;;;;;8173725;28;20409;-73
2020/12/26 12:17:50;;;;;;;20.98;8.10;;;;;;;;;;8165138;28;20484;-71
2020/12/26 12:22:01;;;;;;;19.88;8.23;;;;;;;;;;8198352;28;20057;-70
2020/12/26 12:26:04;;;;;;;25.05;8.13;;;;;;;;;;8181522;28;20476;-73
2020/12/26 12:30:08;;;;;;;14.45;5.65;;;;;;;;;;8170212;28;20451;-73
2020/12/26 12:34:11;;;;;;;18.90;7.20;;;;;;;;;;8179986;28;20046;-73
2020/12/26 12:38:14;;;;;;;20.45;7.55;;;;;;;;;;8151095;28;20361;-72
2020/12/26 12:42:17;;;;;;;19.58;7.25;;;;;;;;;;8161473;28;20408;-72
2020/12/26 12:46:20;;;;;;;22.05;8.15;;;;;;;;;;8106192;28;20886;-73
2020/12/26 12:50:24;;;;;;;46.03;18.45;;;;;;;;;;8105529;28;20366;-74
2020/12/26 12:54:27;;;;;;;55.60;20.55;;;;;;;;;;8159806;28;20357;-72
2020/12/26 12:58:30;;;;;;;40.55;16.17;;;;;;;;;;8127145;28;20046;-72
2020/12/26 13:02:33;;;;;;;19.42;7.22;;;;;;;;;;8161659;28;20077;-73
2020/12/26 13:06:36;;;;;;;37.53;14.60;;;;;;;;;;8162358;28;20382;-73
2020/12/26 13:10:40;;;;;;;90.07;38.00;;;;;;;;;;8159945;28;20406;-72
2020/12/26 13:14:44;;;;;;;219.98;99.30;;;;;;;;;;8161981;28;20481;-71
2020/12/26 13:18:48;;;;;;;214.32;101.57;;;;;;;;;;8160714;28;20382;-73
2020/12/26 13:22:52;;;;;;;235.55;109.50;;;;;;;;;;8162464;28;20069;-73
2020/12/26 13:26:55;;;;;;;119.95;55.25;;;;;;;;;;8159963;28;20474;-72
2020/12/26 13:30:58;;;;;;;106.68;51.60;;;;;;;;;;8161771;28;20117;-73
2020/12/26 13:35:02;;;;;;;114.28;57.30;;;;;;;;;;8097500;28;20365;-73
2020/12/26 13:39:07;;;;;;;24.00;10.05;;;;;;;;;;8160511;28;20385;-73
2020/12/26 13:43:10;;;;;;;31.90;15.13;;;;;;;;;;8160236;28;20473;-73
2020/12/26 13:47:16;;;;;;;21.45;7.88;;;;;;;;;;8158901;28;20485;-72
2020/12/26 13:51:22;;;;;;;67.45;18.15;;;;;;;;;;8175515;28;20457;-75
2020/12/26 13:55:26;;;;;;;15.48;6.90;;;;;;;;;;8161335;28;20376;-72
2020/12/26 13:59:39;;;;;;;27.35;8.55;;;;;;;;;;8159097;28;20385;-71
2020/12/26 14:03:43;;;;;;;23.42;7.25;;;;;;;;;;8126722;28;20374;-72
2020/12/26 14:07:49;;;;;;;19.67;6.32;;;;;;;;;;8159206;28;20381;-73
2020/12/26 14:11:53;;;;;;;18.40;6.25;;;;;;;;;;8158149;28;20053;-71
2020/12/26 14:15:56;;;;;;;20.65;7.72;;;;;;;;;;8160983;28;20363;-73
2020/12/26 14:20:01;;;;;;;19.10;9.52;;;;;;;;;;8157890;28;20465;-74
2020/12/26 14:24:04;;;;;;;31.23;9.35;;;;;;;;;;8160617;28;20051;-73
2020/12/26 14:28:07;;;;;;;30.88;10.20;;;;;;;;;;8151904;28;20074;-72
2020/12/26 14:32:10;;;;;;;39.10;13.25;;;;;;;;;;8153362;28;20496;-72
2020/12/26 14:36:12;;;;;;;45.25;15.02;;;;;;;;;;8090273;28;20371;-74
2020/12/26 14:40:15;;;;;;;42.80;11.43;;;;;;;;;;8127326;28;20378;-73
2020/12/26 14:44:20;;;;;;;40.53;12.18;;;;;;;;;;8125701;28;20343;-73
2020/12/26 14:48:23;;;;;;;73.65;20.98;;;;;;;;;;8109177;28;20363;-74
2020/12/26 14:52:26;;;;;;;56.47;18.73;;;;;;;;;;8128015;28;20489;-75
2020/12/26 14:56:29;;;;;;;37.25;13.55;;;;;;;;;;8127006;28;20434;-73
2020/12/26 15:00:32;;;;;;;36.78;14.15;;;;;;;;;;8124248;28;20081;-74
2020/12/26 15:04:36;;;;;;;29.52;10.95;;;;;;;;;;8127663;28;20500;-73
2020/12/26 15:08:39;;;;;;;27.65;12.07;;;;;;;;;;8126076;28;20390;-74
2020/12/26 15:12:45;;;;;;;35.90;12.32;;;;;;;;;;8127627;28;20347;-74
2020/12/26 15:16:48;;;;;;;35.90;12.30;;;;;;;;;;8126157;28;20397;-73
2020/12/26 15:20:51;;;;;;;35.25;12.88;;;;;;;;;;8073711;28;20378;-73
2020/12/26 15:24:55;;;;;;;33.60;12.30;;;;;;;;;;8137969;28;20503;-72
2020/12/26 15:28:59;;;;;;;38.88;14.27;;;;;;;;;;8124574;28;20359;-73
2020/12/26 15:33:02;;;;;;;47.30;16.70;;;;;;;;;;8122952;28;20516;-75
2020/12/26 15:37:06;;;;;;;51.15;19.00;;;;;;;;;;8124160;28;20520;-74
2020/12/26 15:41:09;;;;;;;45.30;14.43;;;;;;;;;;8125064;28;20462;-73
2020/12/26 15:45:13;;;;;;;30.25;11.32;;;;;;;;;;8125917;28;20474;-73
2020/12/26 15:49:19;;;;;;;45.83;14.65;;;;;;;;;;8126935;28;20462;-74
2020/12/26 15:53:22;;;;;;;53.95;19.52;;;;;;;;;;8080783;28;20493;-74
2020/12/26 15:57:28;;;;;;;70.63;24.95;;;;;;;;;;8126100;28;20500;-74
2020/12/26 16:01:32;;;;;;;62.95;21.27;;;;;;;;;;8126209;28;20054;-72
2020/12/26 16:05:35;;;;;;;62.08;19.25;;;;;;;;;;8125223;28;20390;-74
2020/12/26 16:09:42;;;;;;;70.20;17.60;;;;;;;;;;8126460;28;20485;-73
2020/12/26 16:13:46;;;;;;;283.85;52.00;;;;;;;;;;8131634;28;20414;-74
2020/12/26 16:17:48;;;;;;;77.75;24.80;;;;;;;;;;8131176;28;20371;-74
2020/12/26 16:21:52;;;;;;;585.80;139.00;;;;;;;;;;8130820;28;20371;-74
2020/12/26 16:25:55;;;;;;;192.93;47.00;;;;;;;;;;8132867;28;20566;-74
2020/12/26 16:29:58;;;;;;;269.33;62.08;;;;;;;;;;8028920;28;20473;-73
2020/12/26 16:34:05;;;;;;;114.53;42.00;;;;;;;;;;8159945;28;20555;-72
2020/12/26 16:38:08;;;;;;;80.85;29.33;;;;;;;;;;8159448;28;20493;-73
2020/12/26 16:42:11;;;;;;;58.47;21.30;;;;;;;;;;8144331;28;20076;-72
2020/12/26 16:46:14;;;;;;;42.17;15.15;;;;;;;;;;8159601;28;20054;-73
2020/12/26 16:50:18;;;;;;;42.95;16.92;;;;;;;;;;8144060;28;20501;-73
2020/12/26 16:54:22;;;;;;;49.15;19.67;;;;;;;;;;8159978;28;20483;-74
2020/12/26 16:58:24;;;;;;;56.53;21.50;;;;;;;;;;8159249;28;20466;-73
2020/12/26 17:02:30;;;;;;;43.83;18.25;;;;;;;;;;8159017;28;20402;-73
2020/12/26 17:06:33;;;;;;;73.63;25.13;;;;;;;;;;8110219;28;20058;-73
2020/12/26 17:10:36;;;;;;;76.35;25.50;;;;;;;;;;8142622;28;20458;-74
2020/12/26 17:14:39;;;;;;;71.10;24.58;;;;;;;;;;8143229;28;20530;-74
2020/12/26 17:18:44;;;;;;;80.65;25.42;;;;;;;;;;8142731;28;20043;-74
2020/12/26 17:22:47;;;;;;;116.40;40.78;;;;;;;;;;8153477;28;20485;-74
2020/12/26 17:26:50;;;;;;;82.22;34.20;;;;;;;;;;8162221;28;20385;-73
2020/12/26 17:30:54;;;;;;;64.97;24.38;;;;;;;;;;8162093;28;20481;-74
2020/12/26 17:34:59;;;;;;;36.72;14.75;;;;;;;;;;8176722;28;20046;-73
2020/12/26 17:39:03;;;;;;;53.33;18.63;;;;;;;;;;8161149;28;20380;-74
2020/12/26 17:43:07;;;;;;;67.55;25.30;;;;;;;;;;8162262;28;20480;-73
2020/12/26 17:47:10;;;;;;;80.03;29.10;;;;;;;;;;8161983;28;20050;-74
2020/12/26 17:51:16;;;;;;;60.13;22.35;;;;;;;;;;8161677;28;20378;-73
2020/12/26 17:55:19;;;;;;;44.05;15.73;;;;;;;;;;8160617;28;20494;-74
2020/12/26 17:59:22;;;;;;;55.17;20.92;;;;;;;;;;8161744;28;20351;-73
2020/12/26 18:03:25;;;;;;;62.13;22.70;;;;;;;;;;8161502;28;20479;-73
2020/12/26 18:07:31;;;;;;;58.03;21.00;;;;;;;;;;8144501;28;20458;-73
2020/12/26 18:11:34;;;;;;;67.35;26.30;;;;;;;;;;8143568;28;20454;-74
2020/12/26 18:15:37;;;;;;;48.00;18.65;;;;;;;;;;8160031;28;20378;-73
2020/12/26 18:19:40;;;;;;;58.67;21.20;;;;;;;;;;8159991;28;20470;-74
2020/12/26 18:23:43;;;;;;;67.45;26.60;;;;;;;;;;8159062;28;20484;-74
2020/12/26 18:27:47;;;;;;;121.40;35.75;;;;;;;;;;8160953;28;20413;-73
2020/12/26 18:31:58;;;;;;;122.28;36.85;;;;;;;;;;8159124;28;20515;-74
2020/12/26 18:36:01;;;;;;;94.90;28.52;;;;;;;;;;8159376;28;20389;-74
2020/12/26 18:40:04;;;;;;;101.00;34.38;;;;;;;;;;8140481;28;20465;-74
2020/12/26 18:44:08;;;;;;;88.43;28.73;;;;;;;;;;8156188;28;20473;-73
2020/12/26 18:48:12;;;;;;;139.80;41.80;;;;;;;;;;8156525;28;20404;-73
2020/12/26 18:52:15;;;;;;;121.57;39.13;;;;;;;;;;8156382;28;20424;-74
2020/12/26 18:56:18;;;;;;;119.25;34.22;;;;;;;;;;8156147;28;20054;-74
2020/12/26 19:00:22;;;;;;;100.60;34.42;;;;;;;;;;8119201;28;20377;-74
2020/12/26 19:04:25;;;;;;;128.90;35.97;;;;;;;;;;8108555;28;20470;-73
2020/12/26 19:08:28;;;;;;;90.15;27.48;;;;;;;;;;8129438;28;20478;-73
2020/12/26 19:12:31;;;;;;;83.95;32.28;;;;;;;;;;8128179;28;20393;-74
2020/12/26 19:16:34;;;;;;;91.03;30.90;;;;;;;;;;8133281;28;20389;-73
2020/12/26 19:20:38;;;;;;;71.45;25.80;;;;;;;;;;8159661;28;20359;-74
2020/12/26 19:24:41;;;;;;;69.55;24.75;;;;;;;;;;8143579;28;20397;-73
2020/12/26 19:28:47;;;;;;;63.25;24.02;;;;;;;;;;8157805;28;20077;-74
2020/12/26 19:33:04;;;;;;;59.30;22.67;;;;;;;;;;8158233;28;20480;-74
2020/12/26 19:37:09;;;;;;;67.72;23.75;;;;;;;;;;8159279;28;20428;-74
2020/12/26 19:41:12;;;;;;;61.80;24.45;;;;;;;;;;8159032;28;20485;-74
2020/12/26 19:45:15;;;;;;;60.50;21.67;;;;;;;;;;8158677;28;20726;-74
2020/12/26 19:49:20;;;;;;;64.18;23.45;;;;;;;;;;8164418;28;20378;-74
2020/12/26 19:53:24;;;;;;;56.38;21.55;;;;;;;;;;8163923;28;20451;-74
2020/12/26 19:57:27;;;;;;;73.70;27.02;;;;;;;;;;8165038;28;20481;-73
2020/12/26 20:01:31;;;;;;;70.70;24.50;;;;;;;;;;8165664;28;20069;-72
2020/12/26 20:05:37;;;;;;;76.50;29.00;;;;;;;;;;8165540;28;20389;-72
2020/12/26 20:09:40;;;;;;;62.25;21.15;;;;;;;;;;8164784;28;20382;-72
2020/12/26 20:13:43;;;;;;;64.80;23.77;;;;;;;;;;8164814;28;20370;-72
2020/12/26 20:17:47;;;;;;;59.50;22.23;;;;;;;;;;8148021;28;20050;-72
2020/12/26 20:21:51;;;;;;;68.53;26.48;;;;;;;;;;8164974;28;20477;-72
2020/12/26 20:25:55;;;;;;;64.18;22.92;;;;;;;;;;8162934;28;20397;-72
2020/12/26 20:30:00;;;;;;;61.88;20.70;;;;;;;;;;8163227;28;20461;-73
2020/12/26 20:34:07;;;;;;;64.25;23.52;;;;;;;;;;8162995;28;20072;-73
2020/12/26 20:38:10;;;;;;;60.95;22.50;;;;;;;;;;8165421;28;20373;-73
2020/12/26 20:42:14;;;;;;;56.58;20.38;;;;;;;;;;8146956;28;20488;-73
2020/12/26 20:46:18;;;;;;;59.92;21.05;;;;;;;;;;8162680;28;20366;-73
2020/12/26 20:50:21;;;;;;;48.38;20.23;;;;;;;;;;8162470;28;20043;-73
2020/12/26 20:54:26;;;;;;;58.17;22.67;;;;;;;;;;8163581;28;20376;-73
2020/12/26 20:58:29;;;;;;;68.25;23.67;;;;;;;;;;8161583;28;20485;-73
2020/12/26 21:02:32;;;;;;;74.00;25.85;;;;;;;;;;8162113;28;20496;-73
2020/12/26 21:06:36;;;;;;;70.60;24.02;;;;;;;;;;8163043;28;20474;-73
2020/12/26 21:10:38;;;;;;;108.32;34.03;;;;;;;;;;8162611;28;20417;-72
2020/12/26 21:14:42;;;;;;;91.18;29.23;;;;;;;;;;8163329;28;20493;-73
2020/12/26 21:18:48;;;;;;;76.85;27.17;;;;;;;;;;8161473;28;20481;-72
2020/12/26 21:22:51;;;;;;;66.95;23.30;;;;;;;;;;8145818;28;20377;-72
2020/12/26 21:26:56;;;;;;;88.75;26.35;;;;;;;;;;8162512;28;20481;-74
2020/12/26 21:30:59;;;;;;;92.93;25.70;;;;;;;;;;8190178;28;20054;-73
2020/12/26 21:35:04;;;;;;;94.20;29.02;;;;;;;;;;8190718;28;20737;-74
2020/12/26 21:39:08;;;;;;;161.50;37.03;;;;;;;;;;8174601;28;20373;-73
2020/12/26 21:43:12;;;;;;;76.63;27.67;;;;;;;;;;8173846;28;20408;-73
2020/12/26 21:47:16;;;;;;;85.07;27.27;;;;;;;;;;8189923;28;20483;-74
2020/12/26 21:51:19;;;;;;;102.63;31.60;;;;;;;;;;8190251;28;20495;-74
2020/12/26 21:55:22;;;;;;;89.60;29.02;;;;;;;;;;8189919;28;20385;-73
2020/12/26 21:59:26;;;;;;;61.45;23.67;;;;;;;;;;8188398;28;20473;-74
2020/12/26 22:03:29;;;;;;;73.88;24.45;;;;;;;;;;8161665;28;20381;-72
2020/12/26 22:07:32;;;;;;;62.63;25.40;;;;;;;;;;8161155;28;20371;-73
2020/12/26 22:11:35;;;;;;;78.55;24.25;;;;;;;;;;8160478;28;20452;-74
2020/12/26 22:15:38;;;;;;;266.75;49.10;;;;;;;;;;8161502;28;20385;-74
2020/12/26 22:19:41;;;;;;;65.85;25.60;;;;;;;;;;8160775;28;20474;-74
2020/12/26 22:23:44;;;;;;;72.30;24.92;;;;;;;;;;8162662;28;20103;-73
2020/12/26 22:27:48;;;;;;;65.95;22.83;;;;;;;;;;8160648;28;20388;-73
2020/12/26 22:31:51;;;;;;;56.75;20.83;;;;;;;;;;8158914;28;20050;-74
2020/12/26 22:35:54;;;;;;;67.20;18.98;;;;;;;;;;8161200;28;20493;-73
2020/12/26 22:39:57;;;;;;;57.17;20.65;;;;;;;;;;8160503;28;20485;-74
2020/12/26 22:44:00;;;;;;;63.53;22.05;;;;;;;;;;7982125;28;5000926;-74
2020/12/26 22:48:03;;;;;;;51.85;18.77;;;;;;;;;;8142174;28;20466;-74
2020/12/26 22:52:06;;;;;;;56.60;19.63;;;;;;;;;;8160052;28;20469;-74
2020/12/26 22:56:17;;;;;;;44.72;17.55;;;;;;;;;;8158428;28;20058;-74
2020/12/26 23:00:38;;;;;;;49.75;17.42;;;;;;;;;;8158859;28;20389;-73
2020/12/26 23:04:42;;;;;;;44.40;16.05;;;;;;;;;;8160034;28;20377;-74
2020/12/26 23:08:45;;;;;;;38.28;14.15;;;;;;;;;;8155779;28;20489;-73
2020/12/26 23:12:49;;;;;;;44.63;17.67;;;;;;;;;;8160000;28;20354;-74
2020/12/26 23:16:55;;;;;;;45.65;17.35;;;;;;;;;;8159799;28;20477;-74
2020/12/26 23:20:59;;;;;;;46.28;16.30;;;;;;;;;;8141557;28;20413;-74
2020/12/26 23:25:02;;;;;;;40.72;14.77;;;;;;;;;;8161767;28;20469;-73
2020/12/26 23:29:05;;;;;;;42.08;15.82;;;;;;;;;;8159818;28;20046;-74
2020/12/26 23:33:08;;;;;;;42.45;17.38;;;;;;;;;;8159903;28;20465;-74
2020/12/26 23:37:11;;;;;;;50.00;19.27;;;;;;;;;;8159643;28;20481;-73
2020/12/26 23:41:16;;;;;;;59.63;23.70;;;;;;;;;;8158288;28;20120;-74
2020/12/26 23:45:19;;;;;;;74.53;25.52;;;;;;;;;;8159107;28;20461;-74
2020/12/26 23:49:22;;;;;;;52.65;18.67;;;;;;;;;;8158963;28;20441;-73
2020/12/26 23:53:25;;;;;;;47.28;18.52;;;;;;;;;;8159150;28;20381;-73